sensor_id;sensor_type;location;lat;lon;timestamp;temperature;humidity
1351;DHT22;669;50.206;9.998;2023-05-10T00:00:16;14.70;99.90
1351;DHT22;669;50.206;9.998;2023-05-10T00:02:44;14.70;99.90
1351;DHT22;669;50.206;9.998;2023-05-10T00:05:12;14.70;99.90
1351;DHT22;669;50.206;9.998;2023-05-10T00:07:40;14.80;99.90
1351;DHT22;669;50.206;9.998;2023-05-10T00:10:12;14.80;99.90
1351;DHT22;669;50.206;9.998;2023-05-10T00:12:41;14.80;99.90
1351;DHT22;669;50.206;9.998;2023-05-10T00:15:10;14.70;99.90
1351;DHT22;669;50.206;9.998;2023-05-10T00:17:38;14.70;99.90
1351;DHT22;669;50.206;9.998;2023-05-10T00:20:07;14.70;99.90
1351;DHT22;669;50.206;9.998;2023-05-10T00:22:34;14.70;99.90
1351;DHT22;669;50.206;9.998;2023-05-10T00:25:03;14.70;99.90
1351;DHT22;669;50.206;9.998;2023-05-10T00:27:32;14.70;99.90
1351;DHT22;669;50.206;9.998;2023-05-10T00:30:00;14.70;99.90
1351;DHT22;669;50.206;9.998;2023-05-10T00:32:28;14.70;99.90
1351;DHT22;669;50.206;9.998;2023-05-10T00:34:56;14.70;99.90
1351;DHT22;669;50.206;9.998;2023-05-10T00:37:24;14.70;99.90
1351;DHT22;669;50.206;9.998;2023-05-10T00:39:52;14.70;99.90
1351;DHT22;669;50.206;9.998;2023-05-10T00:42:20;14.70;99.90
1351;DHT22;669;50.206;9.998;2023-05-10T00:44:50;14.80;99.90
1351;DHT22;669;50.206;9.998;2023-05-10T00:47:18;14.80;99.90
1351;DHT22;669;50.206;9.998;2023-05-10T00:49:46;14.80;99.90
1351;DHT22;669;50.206;9.998;2023-05-10T00:52:14;14.80;99.90
1351;DHT22;669;50.206;9.998;2023-05-10T00:54:42;14.70;99.90
1351;DHT22;669;50.206;9.998;2023-05-10T00:57:10;14.70;99.90
1351;DHT22;669;50.206;9.998;2023-05-10T00:59:38;14.70;99.90
1351;DHT22;669;50.206;9.998;2023-05-10T01:02:08;14.60;99.90
1351;DHT22;669;50.206;9.998;2023-05-10T01:04:36;14.60;99.90
1351;DHT22;669;50.206;9.998;2023-05-10T01:07:05;14.60;99.90
1351;DHT22;669;50.206;9.998;2023-05-10T01:09:33;14.50;99.90
1351;DHT22;669;50.206;9.998;2023-05-10T01:12:02;14.50;99.90
1351;DHT22;669;50.206;9.998;2023-05-10T01:14:30;14.40;99.90
1351;DHT22;669;50.206;9.998;2023-05-10T01:16:58;14.40;99.90
1351;DHT22;669;50.206;9.998;2023-05-10T01:19:29;14.30;99.90
1351;DHT22;669;50.206;9.998;2023-05-10T01:22:04;14.20;99.90
1351;DHT22;669;50.206;9.998;2023-05-10T01:27:49;14.20;99.90
1351;DHT22;669;50.206;9.998;2023-05-10T01:30:51;14.20;99.90
1351;DHT22;669;50.206;9.998;2023-05-10T01:33:27;14.10;99.90
1351;DHT22;669;50.206;9.998;2023-05-10T01:36:03;14.00;99.90
1351;DHT22;669;50.206;9.998;2023-05-10T01:38:40;14.00;99.90
1351;DHT22;669;50.206;9.998;2023-05-10T01:41:14;14.00;99.90
1351;DHT22;669;50.206;9.998;2023-05-10T01:43:50;13.90;99.90
1351;DHT22;669;50.206;9.998;2023-05-10T01:46:27;13.90;99.90
1351;DHT22;669;50.206;9.998;2023-05-10T01:48:58;13.90;99.90
1351;DHT22;669;50.206;9.998;2023-05-10T01:51:29;13.90;99.90
1351;DHT22;669;50.206;9.998;2023-05-10T01:54:01;13.90;99.90
1351;DHT22;669;50.206;9.998;2023-05-10T01:56:31;13.90;99.90
1351;DHT22;669;50.206;9.998;2023-05-10T01:59:06;13.90;99.90
1351;DHT22;669;50.206;9.998;2023-05-10T02:01:36;13.90;99.90
1351;DHT22;669;50.206;9.998;2023-05-10T02:04:07;13.90;99.90
1351;DHT22;669;50.206;9.998;2023-05-10T02:06:36;13.90;99.90
1351;DHT22;669;50.206;9.998;2023-05-10T02:09:05;13.80;99.90
1351;DHT22;669;50.206;9.998;2023-05-10T02:11:34;13.80;99.90
1351;DHT22;669;50.206;9.998;2023-05-10T02:14:06;13.60;99.90
1351;DHT22;669;50.206;9.998;2023-05-10T02:16:35;13.50;99.90
1351;DHT22;669;50.206;9.998;2023-05-10T02:19:06;13.40;99.90
1351;DHT22;669;50.206;9.998;2023-05-10T02:21:35;13.30;99.90
1351;DHT22;669;50.206;9.998;2023-05-10T02:24:04;13.20;99.90
1351;DHT22;669;50.206;9.998;2023-05-10T02:26:33;13.20;99.90
1351;DHT22;669;50.206;9.998;2023-05-10T02:29:03;13.10;99.90
1351;DHT22;669;50.206;9.998;2023-05-10T02:31:32;13.10;99.90
1351;DHT22;669;50.206;9.998;2023-05-10T02:34:01;13.10;99.90
1351;DHT22;669;50.206;9.998;2023-05-10T02:36:31;13.00;99.90
1351;DHT22;669;50.206;9.998;2023-05-10T02:39:01;13.00;99.90
1351;DHT22;669;50.206;9.998;2023-05-10T02:41:31;12.90;99.90
1351;DHT22;669;50.206;9.998;2023-05-10T02:44:01;12.90;99.90
1351;DHT22;669;50.206;9.998;2023-05-10T02:46:30;12.80;99.90
1351;DHT22;669;50.206;9.998;2023-05-10T02:48:58;12.80;99.90
1351;DHT22;669;50.206;9.998;2023-05-10T02:51:31;12.80;99.90
1351;DHT22;669;50.206;9.998;2023-05-10T02:54:01;12.80;99.90
1351;DHT22;669;50.206;9.998;2023-05-10T02:56:33;12.80;99.90
1351;DHT22;669;50.206;9.998;2023-05-10T02:59:02;12.80;99.90
1351;DHT22;669;50.206;9.998;2023-05-10T03:01:30;12.70;99.90
1351;DHT22;669;50.206;9.998;2023-05-10T03:03:58;12.70;99.90
1351;DHT22;669;50.206;9.998;2023-05-10T03:06:25;12.70;99.90
1351;DHT22;669;50.206;9.998;2023-05-10T03:08:56;12.60;99.90
1351;DHT22;669;50.206;9.998;2023-05-10T03:11:37;12.60;99.90
1351;DHT22;669;50.206;9.998;2023-05-10T03:14:13;12.60;99.90
1351;DHT22;669;50.206;9.998;2023-05-10T03:16:46;12.60;99.90
1351;DHT22;669;50.206;9.998;2023-05-10T03:19:19;12.60;99.90
1351;DHT22;669;50.206;9.998;2023-05-10T03:21:52;12.50;99.90
1351;DHT22;669;50.206;9.998;2023-05-10T03:24:23;12.50;99.90
1351;DHT22;669;50.206;9.998;2023-05-10T03:26:54;12.50;99.90
1351;DHT22;669;50.206;9.998;2023-05-10T03:29:25;12.50;99.90
1351;DHT22;669;50.206;9.998;2023-05-10T03:31:53;12.50;99.90
1351;DHT22;669;50.206;9.998;2023-05-10T03:34:23;12.50;99.90
1351;DHT22;669;50.206;9.998;2023-05-10T03:36:51;12.50;99.90
1351;DHT22;669;50.206;9.998;2023-05-10T03:39:20;12.60;99.90
1351;DHT22;669;50.206;9.998;2023-05-10T03:41:48;12.60;99.90
1351;DHT22;669;50.206;9.998;2023-05-10T03:44:17;12.60;99.90
1351;DHT22;669;50.206;9.998;2023-05-10T03:46:45;12.60;99.90
1351;DHT22;669;50.206;9.998;2023-05-10T03:49:13;12.60;99.90
1351;DHT22;669;50.206;9.998;2023-05-10T03:51:41;12.60;99.90
1351;DHT22;669;50.206;9.998;2023-05-10T03:54:09;12.60;99.90
1351;DHT22;669;50.206;9.998;2023-05-10T03:56:38;12.60;99.90
1351;DHT22;669;50.206;9.998;2023-05-10T03:59:06;12.60;99.90
1351;DHT22;669;50.206;9.998;2023-05-10T04:01:35;12.50;99.90
1351;DHT22;669;50.206;9.998;2023-05-10T04:04:03;12.50;99.90
1351;DHT22;669;50.206;9.998;2023-05-10T04:06:31;12.50;99.90
1351;DHT22;669;50.206;9.998;2023-05-10T04:08:59;12.50;99.90
1351;DHT22;669;50.206;9.998;2023-05-10T04:11:30;12.50;99.90
1351;DHT22;669;50.206;9.998;2023-05-10T04:13:59;12.50;99.90
1351;DHT22;669;50.206;9.998;2023-05-10T04:16:27;12.50;99.90
1351;DHT22;669;50.206;9.998;2023-05-10T04:18:55;12.50;99.90
1351;DHT22;669;50.206;9.998;2023-05-10T04:21:23;12.50;99.90
1351;DHT22;669;50.206;9.998;2023-05-10T04:23:52;12.50;99.90
1351;DHT22;669;50.206;9.998;2023-05-10T04:26:19;12.50;99.90
1351;DHT22;669;50.206;9.998;2023-05-10T04:28:48;12.50;99.90
1351;DHT22;669;50.206;9.998;2023-05-10T04:31:17;12.50;99.90
1351;DHT22;669;50.206;9.998;2023-05-10T04:33:46;12.50;99.90
1351;DHT22;669;50.206;9.998;2023-05-10T04:36:14;12.60;99.90
1351;DHT22;669;50.206;9.998;2023-05-10T04:38:42;12.60;99.90
1351;DHT22;669;50.206;9.998;2023-05-10T04:41:10;12.60;99.90
1351;DHT22;669;50.206;9.998;2023-05-10T04:43:38;12.60;99.90
1351;DHT22;669;50.206;9.998;2023-05-10T04:46:06;12.50;99.90
1351;DHT22;669;50.206;9.998;2023-05-10T04:48:36;12.50;99.90
1351;DHT22;669;50.206;9.998;2023-05-10T04:51:04;12.50;99.90
1351;DHT22;669;50.206;9.998;2023-05-10T04:53:33;12.50;99.90
1351;DHT22;669;50.206;9.998;2023-05-10T04:56:01;12.50;99.90
1351;DHT22;669;50.206;9.998;2023-05-10T04:58:28;12.50;99.90
1351;DHT22;669;50.206;9.998;2023-05-10T05:00:56;12.50;99.90
1351;DHT22;669;50.206;9.998;2023-05-10T05:03:24;12.50;99.90
1351;DHT22;669;50.206;9.998;2023-05-10T05:05:54;12.50;99.90
1351;DHT22;669;50.206;9.998;2023-05-10T05:08:21;12.40;99.90
1351;DHT22;669;50.206;9.998;2023-05-10T05:10:50;12.50;99.90
1351;DHT22;669;50.206;9.998;2023-05-10T05:13:18;12.50;99.90
1351;DHT22;669;50.206;9.998;2023-05-10T05:15:46;12.60;99.90
1351;DHT22;669;50.206;9.998;2023-05-10T05:18:14;12.60;99.90
1351;DHT22;669;50.206;9.998;2023-05-10T05:20:42;12.60;99.90
1351;DHT22;669;50.206;9.998;2023-05-10T05:23:12;12.60;99.90
1351;DHT22;669;50.206;9.998;2023-05-10T05:25:39;12.70;99.90
1351;DHT22;669;50.206;9.998;2023-05-10T05:28:08;12.70;99.90
1351;DHT22;669;50.206;9.998;2023-05-10T05:30:39;12.80;99.90
1351;DHT22;669;50.206;9.998;2023-05-10T05:33:06;12.80;99.90
1351;DHT22;669;50.206;9.998;2023-05-10T05:35:34;12.90;99.90
1351;DHT22;669;50.206;9.998;2023-05-10T05:38:02;12.90;99.90
1351;DHT22;669;50.206;9.998;2023-05-10T05:40:32;13.00;99.90
1351;DHT22;669;50.206;9.998;2023-05-10T05:43:00;13.00;99.90
1351;DHT22;669;50.206;9.998;2023-05-10T05:45:28;13.00;99.90
1351;DHT22;669;50.206;9.998;2023-05-10T05:47:55;13.00;99.90
1351;DHT22;669;50.206;9.998;2023-05-10T05:50:24;13.10;99.90
1351;DHT22;669;50.206;9.998;2023-05-10T05:52:51;13.10;99.90
1351;DHT22;669;50.206;9.998;2023-05-10T05:55:19;13.20;99.90
1351;DHT22;669;50.206;9.998;2023-05-10T05:57:49;13.30;99.90
1351;DHT22;669;50.206;9.998;2023-05-10T06:00:17;13.30;99.90
1351;DHT22;669;50.206;9.998;2023-05-10T06:02:45;13.30;99.90
1351;DHT22;669;50.206;9.998;2023-05-10T06:05:13;13.30;99.90
1351;DHT22;669;50.206;9.998;2023-05-10T06:07:42;13.30;99.90
1351;DHT22;669;50.206;9.998;2023-05-10T06:10:10;13.30;99.90
1351;DHT22;669;50.206;9.998;2023-05-10T06:12:38;13.30;99.90
1351;DHT22;669;50.206;9.998;2023-05-10T06:15:08;13.40;99.90
1351;DHT22;669;50.206;9.998;2023-05-10T06:17:36;13.40;99.90
1351;DHT22;669;50.206;9.998;2023-05-10T06:20:06;13.50;99.90
1351;DHT22;669;50.206;9.998;2023-05-10T06:22:34;13.60;99.90
1351;DHT22;669;50.206;9.998;2023-05-10T06:25:02;13.60;99.90
1351;DHT22;669;50.206;9.998;2023-05-10T06:27:30;13.60;99.90
1351;DHT22;669;50.206;9.998;2023-05-10T06:29:58;13.60;99.90
1351;DHT22;669;50.206;9.998;2023-05-10T06:32:39;13.70;99.90
1351;DHT22;669;50.206;9.998;2023-05-10T06:35:08;13.70;99.90
1351;DHT22;669;50.206;9.998;2023-05-10T06:37:36;13.70;99.90
1351;DHT22;669;50.206;9.998;2023-05-10T06:40:06;13.80;99.90
1351;DHT22;669;50.206;9.998;2023-05-10T06:42:34;13.90;99.90
1351;DHT22;669;50.206;9.998;2023-05-10T06:45:02;13.90;99.40
1351;DHT22;669;50.206;9.998;2023-05-10T06:47:30;13.90;99.80
1351;DHT22;669;50.206;9.998;2023-05-10T06:49:59;14.10;99.90
1351;DHT22;669;50.206;9.998;2023-05-10T06:52:27;14.20;99.90
1351;DHT22;669;50.206;9.998;2023-05-10T06:54:55;14.30;99.90
1351;DHT22;669;50.206;9.998;2023-05-10T06:57:24;14.40;98.90
1351;DHT22;669;50.206;9.998;2023-05-10T06:59:57;14.50;97.60
1351;DHT22;669;50.206;9.998;2023-05-10T07:02:25;14.50;96.90
1351;DHT22;669;50.206;9.998;2023-05-10T07:04:53;14.50;96.80
1351;DHT22;669;50.206;9.998;2023-05-10T07:07:23;14.50;97.30
1351;DHT22;669;50.206;9.998;2023-05-10T07:09:51;14.60;97.30
1351;DHT22;669;50.206;9.998;2023-05-10T07:12:18;14.50;97.50
1351;DHT22;669;50.206;9.998;2023-05-10T07:14:46;14.50;96.30
1351;DHT22;669;50.206;9.998;2023-05-10T07:17:14;14.40;96.90
1351;DHT22;669;50.206;9.998;2023-05-10T07:19:42;14.40;96.90
1351;DHT22;669;50.206;9.998;2023-05-10T07:22:10;14.30;97.40
1351;DHT22;669;50.206;9.998;2023-05-10T07:24:39;14.20;98.30
1351;DHT22;669;50.206;9.998;2023-05-10T07:27:07;14.20;98.40
1351;DHT22;669;50.206;9.998;2023-05-10T07:29:35;14.10;97.10
1351;DHT22;669;50.206;9.998;2023-05-10T07:32:04;14.10;97.90
1351;DHT22;669;50.206;9.998;2023-05-10T07:34:32;14.00;99.00
1351;DHT22;669;50.206;9.998;2023-05-10T07:37:00;14.10;99.10
1351;DHT22;669;50.206;9.998;2023-05-10T07:39:28;14.10;99.30
1351;DHT22;669;50.206;9.998;2023-05-10T07:41:58;14.20;99.50
1351;DHT22;669;50.206;9.998;2023-05-10T07:44:26;14.20;99.10
1351;DHT22;669;50.206;9.998;2023-05-10T07:46:53;14.30;99.00
1351;DHT22;669;50.206;9.998;2023-05-10T07:49:22;14.30;98.30
1351;DHT22;669;50.206;9.998;2023-05-10T07:51:51;14.30;97.70
1351;DHT22;669;50.206;9.998;2023-05-10T07:54:19;14.30;97.80
1351;DHT22;669;50.206;9.998;2023-05-10T07:56:47;14.30;97.80
1351;DHT22;669;50.206;9.998;2023-05-10T07:59:17;14.20;98.00
1351;DHT22;669;50.206;9.998;2023-05-10T08:01:45;14.20;98.40
1351;DHT22;669;50.206;9.998;2023-05-10T08:04:13;14.20;98.20
1351;DHT22;669;50.206;9.998;2023-05-10T08:06:41;14.30;98.30
1351;DHT22;669;50.206;9.998;2023-05-10T08:09:09;14.30;98.70
1351;DHT22;669;50.206;9.998;2023-05-10T08:11:37;14.40;98.50
1351;DHT22;669;50.206;9.998;2023-05-10T08:14:05;14.50;97.60
1351;DHT22;669;50.206;9.998;2023-05-10T08:16:34;14.70;97.00
1351;DHT22;669;50.206;9.998;2023-05-10T08:19:02;14.80;97.40
1351;DHT22;669;50.206;9.998;2023-05-10T08:21:31;15.00;96.70
1351;DHT22;669;50.206;9.998;2023-05-10T08:23:59;15.00;95.90
1351;DHT22;669;50.206;9.998;2023-05-10T08:26:27;14.90;97.00
1351;DHT22;669;50.206;9.998;2023-05-10T08:28:55;14.90;97.40
1351;DHT22;669;50.206;9.998;2023-05-10T08:31:22;15.00;97.90
1351;DHT22;669;50.206;9.998;2023-05-10T08:33:52;15.40;98.30
1351;DHT22;669;50.206;9.998;2023-05-10T08:36:20;15.90;95.80
1351;DHT22;669;50.206;9.998;2023-05-10T08:38:50;16.10;93.90
1351;DHT22;669;50.206;9.998;2023-05-10T08:41:20;16.30;92.70
1351;DHT22;669;50.206;9.998;2023-05-10T08:43:49;16.30;91.60
1351;DHT22;669;50.206;9.998;2023-05-10T08:46:18;16.10;92.20
1351;DHT22;669;50.206;9.998;2023-05-10T08:48:48;15.90;92.50
1351;DHT22;669;50.206;9.998;2023-05-10T08:51:22;15.70;93.30
1351;DHT22;669;50.206;9.998;2023-05-10T08:53:50;15.50;94.20
1351;DHT22;669;50.206;9.998;2023-05-10T08:56:18;15.40;94.10
1351;DHT22;669;50.206;9.998;2023-05-10T08:58:47;15.20;94.60
1351;DHT22;669;50.206;9.998;2023-05-10T09:01:16;15.00;95.40
1351;DHT22;669;50.206;9.998;2023-05-10T09:03:46;14.80;95.40
1351;DHT22;669;50.206;9.998;2023-05-10T09:06:14;14.70;96.80
1351;DHT22;669;50.206;9.998;2023-05-10T09:08:45;14.50;96.40
1351;DHT22;669;50.206;9.998;2023-05-10T09:11:13;14.40;97.20
1351;DHT22;669;50.206;9.998;2023-05-10T09:13:42;14.40;96.80
1351;DHT22;669;50.206;9.998;2023-05-10T09:16:10;14.30;97.90
1351;DHT22;669;50.206;9.998;2023-05-10T09:18:48;14.20;98.30
1351;DHT22;669;50.206;9.998;2023-05-10T09:21:16;14.20;99.10
1351;DHT22;669;50.206;9.998;2023-05-10T09:23:46;14.30;98.80
1351;DHT22;669;50.206;9.998;2023-05-10T09:26:14;14.40;97.70
1351;DHT22;669;50.206;9.998;2023-05-10T09:28:53;14.60;98.20
1351;DHT22;669;50.206;9.998;2023-05-10T09:31:21;14.90;98.20
1351;DHT22;669;50.206;9.998;2023-05-10T09:33:49;15.10;96.20
1351;DHT22;669;50.206;9.998;2023-05-10T09:36:17;15.30;95.10
1351;DHT22;669;50.206;9.998;2023-05-10T09:38:48;15.50;94.60
1351;DHT22;669;50.206;9.998;2023-05-10T09:41:17;15.60;92.70
1351;DHT22;669;50.206;9.998;2023-05-10T09:43:45;15.70;93.60
1351;DHT22;669;50.206;9.998;2023-05-10T09:46:13;15.80;92.00
1351;DHT22;669;50.206;9.998;2023-05-10T09:48:42;15.80;92.10
1351;DHT22;669;50.206;9.998;2023-05-10T09:51:10;15.70;92.20
1351;DHT22;669;50.206;9.998;2023-05-10T09:53:38;15.60;93.70
1351;DHT22;669;50.206;9.998;2023-05-10T09:56:07;15.40;94.00
1351;DHT22;669;50.206;9.998;2023-05-10T09:58:36;15.20;95.00
1351;DHT22;669;50.206;9.998;2023-05-10T10:01:10;15.00;97.50
1351;DHT22;669;50.206;9.998;2023-05-10T10:03:42;14.80;97.00
1351;DHT22;669;50.206;9.998;2023-05-10T10:06:10;14.70;97.80
1351;DHT22;669;50.206;9.998;2023-05-10T10:08:55;14.60;99.20
1351;DHT22;669;50.206;9.998;2023-05-10T10:11:25;14.40;99.20
1351;DHT22;669;50.206;9.998;2023-05-10T10:13:54;14.50;99.90
1351;DHT22;669;50.206;9.998;2023-05-10T10:16:22;14.40;99.90
1351;DHT22;669;50.206;9.998;2023-05-10T10:18:51;14.30;99.90
1351;DHT22;669;50.206;9.998;2023-05-10T10:21:19;14.20;99.90
1351;DHT22;669;50.206;9.998;2023-05-10T10:23:48;14.10;99.90
1351;DHT22;669;50.206;9.998;2023-05-10T10:26:17;14.10;99.90
1351;DHT22;669;50.206;9.998;2023-05-10T10:28:51;14.10;99.90
1351;DHT22;669;50.206;9.998;2023-05-10T10:31:27;14.10;99.90
1351;DHT22;669;50.206;9.998;2023-05-10T10:34:03;14.20;99.90
1351;DHT22;669;50.206;9.998;2023-05-10T10:36:33;14.40;99.90
1351;DHT22;669;50.206;9.998;2023-05-10T10:39:09;14.50;99.90
1351;DHT22;669;50.206;9.998;2023-05-10T10:41:39;14.60;99.90
1351;DHT22;669;50.206;9.998;2023-05-10T10:44:25;14.60;99.90
1351;DHT22;669;50.206;9.998;2023-05-10T10:47:00;14.80;99.90
1351;DHT22;669;50.206;9.998;2023-05-10T10:49:31;14.90;99.90
1351;DHT22;669;50.206;9.998;2023-05-10T10:52:20;15.10;99.90
1351;DHT22;669;50.206;9.998;2023-05-10T10:54:52;15.30;99.90
1351;DHT22;669;50.206;9.998;2023-05-10T10:57:20;15.50;99.90
1351;DHT22;669;50.206;9.998;2023-05-10T10:59:50;15.90;99.90
1351;DHT22;669;50.206;9.998;2023-05-10T11:02:34;16.10;97.30
1351;DHT22;669;50.206;9.998;2023-05-10T11:05:37;16.50;95.90
1351;DHT22;669;50.206;9.998;2023-05-10T11:08:14;17.00;92.20
1351;DHT22;669;50.206;9.998;2023-05-10T11:11:02;17.10;91.70
1351;DHT22;669;50.206;9.998;2023-05-10T11:13:33;17.10;89.80
1351;DHT22;669;50.206;9.998;2023-05-10T11:16:12;17.10;92.80
1351;DHT22;669;50.206;9.998;2023-05-10T11:18:41;17.10;91.90
1351;DHT22;669;50.206;9.998;2023-05-10T11:21:19;17.10;91.60
1351;DHT22;669;50.206;9.998;2023-05-10T11:23:53;17.00;91.40
1351;DHT22;669;50.206;9.998;2023-05-10T11:26:23;17.00;92.10
1351;DHT22;669;50.206;9.998;2023-05-10T11:28:53;17.00;92.00
1351;DHT22;669;50.206;9.998;2023-05-10T11:31:24;17.10;90.20
1351;DHT22;669;50.206;9.998;2023-05-10T11:33:55;17.20;90.80
1351;DHT22;669;50.206;9.998;2023-05-10T11:36:26;17.30;82.70
1351;DHT22;669;50.206;9.998;2023-05-10T11:38:55;17.70;86.10
1351;DHT22;669;50.206;9.998;2023-05-10T11:41:23;17.80;81.70
1351;DHT22;669;50.206;9.998;2023-05-10T11:43:52;18.10;81.10
1351;DHT22;669;50.206;9.998;2023-05-10T11:46:24;18.30;75.60
1351;DHT22;669;50.206;9.998;2023-05-10T11:48:57;18.20;76.70
1351;DHT22;669;50.206;9.998;2023-05-10T11:51:27;18.30;77.80
1351;DHT22;669;50.206;9.998;2023-05-10T11:53:56;18.80;75.10
1351;DHT22;669;50.206;9.998;2023-05-10T11:56:24;19.10;75.50
1351;DHT22;669;50.206;9.998;2023-05-10T11:58:54;19.10;71.00
1351;DHT22;669;50.206;9.998;2023-05-10T12:01:25;19.10;70.60
1351;DHT22;669;50.206;9.998;2023-05-10T12:03:55;19.20;69.30
1351;DHT22;669;50.206;9.998;2023-05-10T12:06:27;19.40;70.60
1351;DHT22;669;50.206;9.998;2023-05-10T12:08:55;19.70;69.90
1351;DHT22;669;50.206;9.998;2023-05-10T12:11:25;19.90;63.50
1351;DHT22;669;50.206;9.998;2023-05-10T12:13:54;20.20;61.20
1351;DHT22;669;50.206;9.998;2023-05-10T12:16:25;20.30;63.80
1351;DHT22;669;50.206;9.998;2023-05-10T12:18:55;20.60;55.00
1351;DHT22;669;50.206;9.998;2023-05-10T12:21:23;20.70;55.30
1351;DHT22;669;50.206;9.998;2023-05-10T12:23:53;20.60;55.80
1351;DHT22;669;50.206;9.998;2023-05-10T12:26:21;20.40;58.10
1351;DHT22;669;50.206;9.998;2023-05-10T12:28:49;20.20;59.30
1351;DHT22;669;50.206;9.998;2023-05-10T12:31:17;20.00;59.10
1351;DHT22;669;50.206;9.998;2023-05-10T12:33:47;19.70;59.80
1351;DHT22;669;50.206;9.998;2023-05-10T12:36:16;19.60;58.80
1351;DHT22;669;50.206;9.998;2023-05-10T12:38:45;19.40;55.40
1351;DHT22;669;50.206;9.998;2023-05-10T12:41:15;19.50;57.70
1351;DHT22;669;50.206;9.998;2023-05-10T12:43:44;19.40;57.80
1351;DHT22;669;50.206;9.998;2023-05-10T12:46:14;19.30;57.40
1351;DHT22;669;50.206;9.998;2023-05-10T12:48:43;19.10;57.60
1351;DHT22;669;50.206;9.998;2023-05-10T12:51:13;19.00;58.20
1351;DHT22;669;50.206;9.998;2023-05-10T12:53:44;18.80;62.50
1351;DHT22;669;50.206;9.998;2023-05-10T12:56:15;18.60;63.90
1351;DHT22;669;50.206;9.998;2023-05-10T12:58:43;18.40;61.50
1351;DHT22;669;50.206;9.998;2023-05-10T13:01:14;18.20;63.70
1351;DHT22;669;50.206;9.998;2023-05-10T13:03:42;18.00;66.60
1351;DHT22;669;50.206;9.998;2023-05-10T13:06:10;17.80;64.60
1351;DHT22;669;50.206;9.998;2023-05-10T13:08:41;17.50;61.60
1351;DHT22;669;50.206;9.998;2023-05-10T13:11:09;17.20;64.60
1351;DHT22;669;50.206;9.998;2023-05-10T13:13:37;16.80;67.30
1351;DHT22;669;50.206;9.998;2023-05-10T13:16:05;16.50;68.70
1351;DHT22;669;50.206;9.998;2023-05-10T13:18:33;16.10;73.60
1351;DHT22;669;50.206;9.998;2023-05-10T13:21:01;15.90;77.90
1351;DHT22;669;50.206;9.998;2023-05-10T13:23:30;15.80;81.10
1351;DHT22;669;50.206;9.998;2023-05-10T13:25:59;15.60;87.60
1351;DHT22;669;50.206;9.998;2023-05-10T13:28:27;15.60;90.50
1351;DHT22;669;50.206;9.998;2023-05-10T13:30:56;15.60;92.10
1351;DHT22;669;50.206;9.998;2023-05-10T13:33:24;15.50;91.90
1351;DHT22;669;50.206;9.998;2023-05-10T13:35:52;15.40;92.60
1351;DHT22;669;50.206;9.998;2023-05-10T13:38:21;15.30;94.00
1351;DHT22;669;50.206;9.998;2023-05-10T13:40:49;15.20;94.50
1351;DHT22;669;50.206;9.998;2023-05-10T13:43:20;15.10;94.60
1351;DHT22;669;50.206;9.998;2023-05-10T13:45:48;14.90;94.80
1351;DHT22;669;50.206;9.998;2023-05-10T13:48:16;14.80;95.90
1351;DHT22;669;50.206;9.998;2023-05-10T13:50:44;14.80;95.90
1351;DHT22;669;50.206;9.998;2023-05-10T13:53:12;14.80;96.80
1351;DHT22;669;50.206;9.998;2023-05-10T13:55:41;14.80;97.40
1351;DHT22;669;50.206;9.998;2023-05-10T13:58:09;14.80;97.40
1351;DHT22;669;50.206;9.998;2023-05-10T14:00:38;14.80;97.60
1351;DHT22;669;50.206;9.998;2023-05-10T14:03:06;14.90;97.70
1351;DHT22;669;50.206;9.998;2023-05-10T14:05:35;15.00;97.50
1351;DHT22;669;50.206;9.998;2023-05-10T14:08:03;15.10;98.00
1351;DHT22;669;50.206;9.998;2023-05-10T14:10:31;15.30;97.60
1351;DHT22;669;50.206;9.998;2023-05-10T14:12:59;15.60;96.90
1351;DHT22;669;50.206;9.998;2023-05-10T14:15:27;15.80;97.20
1351;DHT22;669;50.206;9.998;2023-05-10T14:17:57;16.00;96.20
1351;DHT22;669;50.206;9.998;2023-05-10T14:20:25;16.20;93.90
1351;DHT22;669;50.206;9.998;2023-05-10T14:22:53;16.30;93.90
1351;DHT22;669;50.206;9.998;2023-05-10T14:25:21;16.50;94.10
1351;DHT22;669;50.206;9.998;2023-05-10T14:27:49;16.70;93.30
1351;DHT22;669;50.206;9.998;2023-05-10T14:30:17;16.90;93.30
1351;DHT22;669;50.206;9.998;2023-05-10T14:32:45;17.00;92.20
1351;DHT22;669;50.206;9.998;2023-05-10T14:35:14;17.10;92.30
1351;DHT22;669;50.206;9.998;2023-05-10T14:37:45;17.20;92.20
1351;DHT22;669;50.206;9.998;2023-05-10T14:40:13;17.20;91.00
1351;DHT22;669;50.206;9.998;2023-05-10T14:42:42;17.20;87.40
1351;DHT22;669;50.206;9.998;2023-05-10T14:45:10;17.20;88.00
1351;DHT22;669;50.206;9.998;2023-05-10T14:47:38;17.10;88.60
1351;DHT22;669;50.206;9.998;2023-05-10T14:50:07;17.00;88.70
1351;DHT22;669;50.206;9.998;2023-05-10T14:52:36;16.90;88.70
1351;DHT22;669;50.206;9.998;2023-05-10T14:55:05;16.90;88.80
1351;DHT22;669;50.206;9.998;2023-05-10T14:57:33;16.80;88.30
1351;DHT22;669;50.206;9.998;2023-05-10T15:00:01;16.80;88.90
1351;DHT22;669;50.206;9.998;2023-05-10T15:02:30;16.70;85.60
1351;DHT22;669;50.206;9.998;2023-05-10T15:04:59;16.70;86.80
1351;DHT22;669;50.206;9.998;2023-05-10T15:07:27;16.60;84.60
1351;DHT22;669;50.206;9.998;2023-05-10T15:09:57;16.60;86.10
1351;DHT22;669;50.206;9.998;2023-05-10T15:12:24;16.50;86.50
1351;DHT22;669;50.206;9.998;2023-05-10T15:14:52;16.50;86.60
1351;DHT22;669;50.206;9.998;2023-05-10T15:17:20;16.50;85.70
1351;DHT22;669;50.206;9.998;2023-05-10T15:19:48;16.40;87.70
1351;DHT22;669;50.206;9.998;2023-05-10T15:22:16;16.40;86.80
1351;DHT22;669;50.206;9.998;2023-05-10T15:24:44;16.40;86.50
1351;DHT22;669;50.206;9.998;2023-05-10T15:27:13;16.50;85.10
1351;DHT22;669;50.206;9.998;2023-05-10T15:29:41;16.50;84.40
1351;DHT22;669;50.206;9.998;2023-05-10T15:32:09;16.50;81.90
1351;DHT22;669;50.206;9.998;2023-05-10T15:34:37;16.40;83.90
1351;DHT22;669;50.206;9.998;2023-05-10T15:37:05;16.40;85.00
1351;DHT22;669;50.206;9.998;2023-05-10T15:39:33;16.50;85.10
1351;DHT22;669;50.206;9.998;2023-05-10T15:42:01;16.40;82.60
1351;DHT22;669;50.206;9.998;2023-05-10T15:44:30;16.40;82.90
1351;DHT22;669;50.206;9.998;2023-05-10T15:47:01;16.40;84.10
1351;DHT22;669;50.206;9.998;2023-05-10T15:49:29;16.40;83.30
1351;DHT22;669;50.206;9.998;2023-05-10T15:51:57;16.40;81.00
1351;DHT22;669;50.206;9.998;2023-05-10T15:54:25;16.30;81.40
1351;DHT22;669;50.206;9.998;2023-05-10T15:56:53;16.30;77.70
1351;DHT22;669;50.206;9.998;2023-05-10T15:59:21;16.30;79.00
1351;DHT22;669;50.206;9.998;2023-05-10T16:01:50;16.30;77.30
1351;DHT22;669;50.206;9.998;2023-05-10T16:04:18;16.20;77.60
1351;DHT22;669;50.206;9.998;2023-05-10T16:06:46;16.10;79.00
1351;DHT22;669;50.206;9.998;2023-05-10T16:09:14;16.20;80.10
1351;DHT22;669;50.206;9.998;2023-05-10T16:11:42;16.20;80.10
1351;DHT22;669;50.206;9.998;2023-05-10T16:14:10;16.20;79.70
1351;DHT22;669;50.206;9.998;2023-05-10T16:16:38;16.10;80.00
1351;DHT22;669;50.206;9.998;2023-05-10T16:19:08;16.10;81.50
1351;DHT22;669;50.206;9.998;2023-05-10T16:21:36;16.10;80.40
1351;DHT22;669;50.206;9.998;2023-05-10T16:24:04;16.10;80.00
1351;DHT22;669;50.206;9.998;2023-05-10T16:26:32;16.10;81.10
1351;DHT22;669;50.206;9.998;2023-05-10T16:29:06;16.10;81.20
1351;DHT22;669;50.206;9.998;2023-05-10T16:31:34;16.10;80.30
1351;DHT22;669;50.206;9.998;2023-05-10T16:34:02;16.10;81.60